createdAt,value
2022-07-27T00:01:35.464Z,23.00
2022-07-27T00:06:38.372Z,23.00
2022-07-27T00:11:41.542Z,22.90
2022-07-27T00:16:45.902Z,22.90
2022-07-27T00:21:48.850Z,22.90
2022-07-27T00:26:53.580Z,22.90
2022-07-27T00:31:57.911Z,22.80
2022-07-27T00:37:02.607Z,22.80
2022-07-27T00:42:05.718Z,22.70
2022-07-27T00:47:10.015Z,22.60
2022-07-27T00:52:13.295Z,22.50
2022-07-27T00:57:17.148Z,22.50
2022-07-27T01:02:23.479Z,22.50
2022-07-27T01:07:27.473Z,22.40
2022-07-27T01:12:32.262Z,22.40
2022-07-27T01:17:37.410Z,22.40
2022-07-27T01:22:41.651Z,22.30
2022-07-27T01:27:44.691Z,22.30
2022-07-27T01:32:47.597Z,22.30
2022-07-27T01:37:52.082Z,22.30
2022-07-27T01:42:55.188Z,22.30
2022-07-27T01:47:58.193Z,22.30
2022-07-27T01:53:02.678Z,22.30
2022-07-27T01:58:07.244Z,22.30
2022-07-27T02:03:11.951Z,22.30
2022-07-27T02:08:16.203Z,22.20
2022-07-27T02:13:22.986Z,22.20
2022-07-27T02:18:32.717Z,22.10
2022-07-27T02:23:41.096Z,22.10
2022-07-27T02:28:44.062Z,22.00
2022-07-27T02:33:47.483Z,21.90
2022-07-27T02:38:51.749Z,21.80
2022-07-27T02:43:54.663Z,21.70
2022-07-27T02:48:57.708Z,21.70
2022-07-27T02:54:02.033Z,21.50
2022-07-27T02:59:04.953Z,21.50
2022-07-27T03:04:07.925Z,21.40
2022-07-27T03:09:12.695Z,21.40
2022-07-27T03:14:16.226Z,21.30
2022-07-27T03:19:19.190Z,21.30
2022-07-27T03:24:23.458Z,21.30
2022-07-27T03:29:29.432Z,21.30
2022-07-27T03:34:32.599Z,21.20
2022-07-27T03:39:36.921Z,21.30
2022-07-27T03:44:40.081Z,21.20
2022-07-27T03:49:43.224Z,21.20
2022-07-27T03:54:48.955Z,21.20
2022-07-27T03:59:52.102Z,21.10
2022-07-27T04:04:55.062Z,21.10
2022-07-27T04:09:59.299Z,21.10
2022-07-27T04:15:02.209Z,21.00
2022-07-27T04:20:06.040Z,21.00
2022-07-27T04:25:11.371Z,20.90
2022-07-27T04:30:14.814Z,20.90
2022-07-27T04:35:20.280Z,20.80
2022-07-27T04:40:34.059Z,20.70
2022-07-27T04:45:37.632Z,20.60
2022-07-27T04:50:41.736Z,20.60
2022-07-27T04:55:47.534Z,20.60
2022-07-27T05:00:50.529Z,20.60
2022-07-27T05:05:54.510Z,20.60
2022-07-27T05:10:58.762Z,20.70
2022-07-27T05:16:01.732Z,20.70
2022-07-27T05:21:04.988Z,20.70
2022-07-27T05:26:09.271Z,20.80
2022-07-27T05:31:12.187Z,20.80
2022-07-27T05:36:15.122Z,20.80
2022-07-27T05:41:24.568Z,20.80
2022-07-27T05:46:31.066Z,20.80
2022-07-27T05:51:36.106Z,20.90
2022-07-27T05:56:40.411Z,20.90
2022-07-27T06:01:43.315Z,21.00
2022-07-27T06:07:03.799Z,21.00
2022-07-27T06:12:09.237Z,21.00
2022-07-27T06:17:12.204Z,21.00
2022-07-27T06:22:15.143Z,21.10
2022-07-27T06:27:19.397Z,21.20
2022-07-27T06:32:22.330Z,21.30
2022-07-27T06:37:27.279Z,21.40
2022-07-27T06:42:31.672Z,21.50
2022-07-27T06:47:34.604Z,21.60
2022-07-27T06:52:37.610Z,21.80
2022-07-27T06:57:43.063Z,21.90
2022-07-27T07:02:54.017Z,22.10
2022-07-27T07:07:57.707Z,22.30
2022-07-27T07:13:05.763Z,22.40
2022-07-27T07:18:09.510Z,22.70
2022-07-27T07:23:12.880Z,22.90
2022-07-27T07:28:17.138Z,23.10
2022-07-27T07:33:20.156Z,23.20
2022-07-27T07:38:23.065Z,23.40
2022-07-27T07:43:28.760Z,23.50
2022-07-27T07:48:31.945Z,23.60
2022-07-27T07:53:40.861Z,23.70
2022-07-27T07:58:45.786Z,23.80
2022-07-27T08:03:50.997Z,24.00
2022-07-27T08:08:54.314Z,24.10
2022-07-27T08:13:58.789Z,24.30
2022-07-27T08:19:01.679Z,24.40
2022-07-27T08:24:05.058Z,24.60
2022-07-27T08:29:13.770Z,24.80
2022-07-27T08:34:17.381Z,24.90
2022-07-27T08:40:05.413Z,25.10
2022-07-27T08:44:46.541Z,25.20
2022-07-27T08:49:49.985Z,25.30
2022-07-27T08:54:53.282Z,25.50
2022-07-27T08:59:57.636Z,25.60
2022-07-27T09:05:00.661Z,25.70
2022-07-27T09:10:05.052Z,25.80
2022-07-27T09:15:12.256Z,26.00
2022-07-27T09:20:18.855Z,26.10
2022-07-27T09:25:38.767Z,26.20
2022-07-27T09:30:47.964Z,26.40
2022-07-27T09:35:59.246Z,26.60
2022-07-27T09:41:03.025Z,26.80
2022-07-27T09:46:08.478Z,26.80
2022-07-27T09:51:57.743Z,26.80
2022-07-27T09:56:35.956Z,26.70
2022-07-27T10:01:46.734Z,26.70
2022-07-27T10:07:10.860Z,26.70
2022-07-27T10:12:14.952Z,26.70
2022-07-27T10:17:20.275Z,26.70
2022-07-27T10:22:51.500Z,26.70
2022-07-27T10:28:11.404Z,26.70
2022-07-27T10:33:17.392Z,26.60
2022-07-27T10:38:21.635Z,26.60
2022-07-27T10:43:24.652Z,26.70
2022-07-27T10:48:47.708Z,26.70
2022-07-27T10:59:15.307Z,26.70
2022-07-27T11:04:20.760Z,26.80
2022-07-27T11:14:48.331Z,27.20
2022-07-27T11:19:56.867Z,27.40
2022-07-27T11:25:01.945Z,27.60
2022-07-27T11:30:05.312Z,27.80
2022-07-27T11:35:19.804Z,27.90
2022-07-27T11:40:53.717Z,28.00
2022-07-27T11:45:46.977Z,28.20
2022-07-27T11:50:59.497Z,28.30
2022-07-27T11:56:02.650Z,28.40
2022-07-27T12:01:05.595Z,28.40
2022-07-27T12:06:10.677Z,28.40
2022-07-27T12:11:13.643Z,28.30
2022-07-27T12:16:19.734Z,28.20
2022-07-27T12:21:24.061Z,28.00
2022-07-27T12:26:34.666Z,27.90
2022-07-27T12:31:47.787Z,27.80
2022-07-27T12:36:52.505Z,27.70
2022-07-27T12:42:05.254Z,27.60
2022-07-27T12:47:27.994Z,27.50
2022-07-27T12:52:32.922Z,27.50
2022-07-27T12:57:54.611Z,27.60
2022-07-27T13:03:00.689Z,27.60
2022-07-27T13:08:06.281Z,27.80
2022-07-27T13:13:09.721Z,27.90
2022-07-27T13:18:12.813Z,28.10
2022-07-27T13:23:17.185Z,28.10
2022-07-27T13:28:20.157Z,28.20
2022-07-27T13:33:23.124Z,28.30
2022-07-27T13:38:28.467Z,28.30
2022-07-27T13:43:31.396Z,28.40
2022-07-27T13:48:34.407Z,28.40
2022-07-27T13:53:38.716Z,28.50
2022-07-27T13:58:41.862Z,28.70
2022-07-27T14:03:44.752Z,28.90
2022-07-27T14:08:50.719Z,29.00
2022-07-27T14:13:53.712Z,29.00
2022-07-27T14:18:56.696Z,29.00
2022-07-27T14:24:01.225Z,29.00
2022-07-27T14:29:04.185Z,28.90
2022-07-27T14:34:07.391Z,28.90
2022-07-27T14:39:11.989Z,28.90
2022-07-27T14:44:15.080Z,28.90
2022-07-27T14:49:22.731Z,28.80
2022-07-27T14:54:27.470Z,28.70
2022-07-27T14:59:30.694Z,28.60
2022-07-27T15:04:33.693Z,28.50
2022-07-27T15:09:38.004Z,28.40
2022-07-27T15:14:40.983Z,28.30
2022-07-27T15:19:44.082Z,28.10
2022-07-27T15:24:48.398Z,28.00
2022-07-27T15:29:51.314Z,28.00
2022-07-27T15:34:54.246Z,27.90
2022-07-27T15:40:01.374Z,27.80
2022-07-27T15:45:04.797Z,27.80
2022-07-27T15:50:08.284Z,27.80
2022-07-27T15:55:15.336Z,28.00
2022-07-27T16:00:18.411Z,28.10
2022-07-27T16:05:23.776Z,28.40
2022-07-27T16:10:29.864Z,28.60
2022-07-27T16:15:50.711Z,28.90
2022-07-27T16:20:54.317Z,29.20
2022-07-27T16:26:05.951Z,29.50
2022-07-27T16:31:11.373Z,29.70
2022-07-27T16:36:14.957Z,29.80
2022-07-27T16:41:21.708Z,30.00
2022-07-27T16:46:24.981Z,30.10
2022-07-27T16:51:27.930Z,30.10
2022-07-27T16:56:32.437Z,30.10
2022-07-27T17:01:35.593Z,30.10
2022-07-27T17:06:38.636Z,30.00
2022-07-27T17:11:42.959Z,29.90
2022-07-27T17:16:51.922Z,29.80
2022-07-27T17:21:55.321Z,29.60
2022-07-27T17:26:59.593Z,29.40
2022-07-27T17:32:02.519Z,29.10
2022-07-27T17:37:05.467Z,28.90
2022-07-27T17:42:09.892Z,28.70
2022-07-27T17:47:12.992Z,28.60
2022-07-27T17:52:16.013Z,28.30
2022-07-27T17:57:20.321Z,28.20
2022-07-27T18:02:23.352Z,28.00
2022-07-27T18:07:26.555Z,27.80
2022-07-27T18:12:30.800Z,27.70
2022-07-27T18:17:34.750Z,27.60
2022-07-27T18:22:38.748Z,27.40
2022-07-27T18:27:44.829Z,27.30
2022-07-27T18:32:47.763Z,27.10
2022-07-27T18:37:50.673Z,26.90
2022-07-27T18:42:55.170Z,26.70
2022-07-27T18:47:58.165Z,26.50
2022-07-27T18:53:01.244Z,26.30
2022-07-27T18:58:05.685Z,26.10
2022-07-27T19:03:09.364Z,25.90
2022-07-27T19:08:14.509Z,25.70
2022-07-27T19:13:18.777Z,25.50
2022-07-27T19:18:23.563Z,25.40
2022-07-27T19:23:26.698Z,25.20
2022-07-27T19:28:30.965Z,25.10
2022-07-27T19:33:33.937Z,24.80
2022-07-27T19:38:36.878Z,24.70
2022-07-27T19:43:41.250Z,24.40
2022-07-27T19:48:44.336Z,24.20
2022-07-27T19:53:47.385Z,24.00
2022-07-27T19:58:51.652Z,23.90
2022-07-27T20:03:55.160Z,23.80
2022-07-27T20:08:59.665Z,23.60
2022-07-27T20:14:04.397Z,23.40
2022-07-27T20:19:07.276Z,23.30
2022-07-27T20:24:10.172Z,23.10
2022-07-27T20:29:14.900Z,23.00
2022-07-27T20:34:18.202Z,22.80
2022-07-27T20:39:21.387Z,22.80
2022-07-27T20:44:27.536Z,22.60
2022-07-27T20:49:30.574Z,22.40
2022-07-27T20:54:33.556Z,22.30
2022-07-27T20:59:37.830Z,22.20
2022-07-27T21:04:40.759Z,22.00
2022-07-27T21:09:43.645Z,21.90
2022-07-27T21:14:47.948Z,21.80
2022-07-27T21:19:50.875Z,21.70
2022-07-27T21:24:55.891Z,21.60
2022-07-27T21:30:00.832Z,21.50
2022-07-27T21:35:06.834Z,21.40
2022-07-27T21:40:12.260Z,21.30
2022-07-27T21:45:16.552Z,21.20
2022-07-27T21:50:19.758Z,21.10
2022-07-27T21:55:23.500Z,21.10
2022-07-27T22:00:29.415Z,21.10
2022-07-27T22:05:32.546Z,21.00
2022-07-27T22:10:35.502Z,21.00
2022-07-27T22:15:39.757Z,20.90
2022-07-27T22:20:42.812Z,20.80
2022-07-27T22:25:45.823Z,20.70
2022-07-27T22:31:20.758Z,20.60
2022-07-27T22:36:13.313Z,20.50
2022-07-27T22:41:16.434Z,20.40
2022-07-27T22:46:25.450Z,20.30
2022-07-27T22:51:49.490Z,20.30
2022-07-27T22:56:52.125Z,20.10
2022-07-27T23:01:56.584Z,20.10
2022-07-27T23:06:59.741Z,20.00
2022-07-27T23:12:02.683Z,19.90
2022-07-27T23:17:07.235Z,19.80
2022-07-27T23:22:11.555Z,19.80
2022-07-27T23:27:14.685Z,19.70
2022-07-27T23:32:18.924Z,19.60
2022-07-27T23:37:21.844Z,19.60
2022-07-27T23:42:25.585Z,19.50
2022-07-27T23:47:31.545Z,19.40
2022-07-27T23:52:34.735Z,19.30
2022-07-27T23:57:37.703Z,19.20
